Flight Track Log - Related Links

Times and Time Zones

All times are in EDT time to prevent confusion due to time zone crossing. See the KAL8245 flight status page for this flight to view local times or setup timezone preferences in your user account.


Time Position Orientation Groundspeed Altitude Reporting Facility
EDT Latitude Longitude Course Direction KTS MPH feet Rate Location/Type
Sat 04:12:27 AM 32.8750 -97.0560 187° South 154 177 2,100  Level FlightAware ADS-B
Sat 04:12:42 AM 32.8630 -97.0580 188° South 150 173 3,000 2,533 Climbing FlightAware ADS-B
Sat 04:13:12 AM 32.8430 -97.0610 187° South 156 180 4,000 1,527 Climbing FlightAware ADS-B
Sat 04:13:37 AM 32.8230 -97.0650 190° South 189 217 4,400 900 Climbing FlightAware ADS-B
Sat 04:13:52 AM 32.8120 -97.0750 217° Southwest 212 244 4,600 600 Climbing FlightAware ADS-B
Sat 04:14:07 AM 32.8050 -97.0900 241° Southwest 240 276 4,700 600 Climbing FlightAware ADS-B
Sat 04:14:12 AM 32.8040 -97.0990 262° West 253 291 4,800 2,160 Climbing FlightAware ADS-B
Sat 04:14:32 AM 32.8090 -97.1270 282° West 266 306 5,600 2,571 Climbing FlightAware ADS-B
Sat 04:14:47 AM 32.8130 -97.1460 284° West 265 305 6,300 3,200 Climbing FlightAware ADS-B
Sat 04:15:17 AM 32.8210 -97.1900 282° West 265 305 8,000 3,164 Climbing FlightAware ADS-B
Sat 04:15:42 AM 32.8260 -97.2250 280° West 269 310 9,200 2,314 Climbing FlightAware ADS-B
Sat 04:16:27 AM 32.8350 -97.2960 279° West 305 351 10,700 1,765 Climbing FlightAware ADS-B
Sat 04:17:07 AM 32.8450 -97.3710 279° West 360 414 11,700 2,329 Climbing FlightAware ADS-B
Sat 04:17:52 AM 32.8580 -97.4620 280° West 384 442 14,000 3,106 Climbing FlightAware ADS-B
Sat 04:18:32 AM 32.8680 -97.5370 279° West 397 457 16,100 3,529 Climbing FlightAware ADS-B
Sat 04:19:17 AM 32.8830 -97.6440 280° West 411 473 19,000 3,529 Climbing FlightAware ADS-B
Sat 04:19:57 AM 32.8950 -97.7350 279° West 422 486 21,100 3,760 Climbing FlightAware ADS-B
Sat 04:20:32 AM 32.9060 -97.8110 280° West 409 471 23,700 3,388 Climbing FlightAware ADS-B
Sat 04:21:22 AM 32.9210 -97.9210 279° West 419 482 25,900 2,571 Climbing FlightAware ADS-B
Sat 04:23:27 AM 32.9600 -98.2190 279° West 438 504 31,200 2,436 Climbing FlightAware ADS-B
Sat 04:24:07 AM 32.9730 -98.3120 279° West 445 512 32,600 2,047 Climbing FlightAware ADS-B
Sat 04:24:52 AM 32.9880 -98.4240 279° West 451 519 34,100 2,329 Climbing FlightAware ADS-B
Sat 04:25:32 AM 33.0000 -98.5190 279° West 438 504 35,900 2,775 Climbing FlightAware ADS-B
Sat 04:26:12 AM 33.0120 -98.6140 279° West 419 482 37,800 2,188 Climbing FlightAware ADS-B
Sat 04:26:57 AM 33.0250 -98.7140 279° West 415 478 39,000 1,412 Climbing FlightAware ADS-B
Sat 04:27:37 AM 33.0370 -98.8070 279° West 417 480 39,800 706 Climbing FlightAware ADS-B
Sat 04:28:22 AM 33.0500 -98.9100 279° West 424 488 40,000 141 Climbing FlightAware ADS-B
Sat 04:29:02 AM 33.0610 -99.0000 278° West 426 490 40,000  Level FlightAware ADS-B
Sat 04:29:42 AM 33.0730 -99.0930 279° West 426 490 40,000  Level FlightAware ADS-B
Sat 04:30:27 AM 33.0860 -99.2000 278° West 427 491 40,000  Level FlightAware ADS-B
Sat 04:31:07 AM 33.0980 -99.2910 279° West 428 493 40,000  Level FlightAware ADS-B
Sat 04:31:47 AM 33.1090 -99.3850 278° West 429 494 40,000  Level FlightAware ADS-B
Sat 04:32:32 AM 33.1220 -99.4880 279° West 431 496 40,000  Level FlightAware ADS-B
Sat 04:33:12 AM 33.1340 -99.5850 278° West 432 497 40,000  Level FlightAware ADS-B
Sat 04:33:57 AM 33.1460 -99.6910 278° West 432 497 40,000  Level FlightAware ADS-B
Sat 04:34:37 AM 33.1580 -99.7850 279° West 430 495 40,000  Level FlightAware ADS-B
Sat 04:35:17 AM 33.1690 -99.8790 278° West 429 494 40,000  Level FlightAware ADS-B
Sat 04:36:02 AM 33.1810 -99.9860 278° West 429 494 40,000  Level FlightAware ADS-B
Sat 04:36:52 AM 33.1940 -100.0970 278° West 429 494 40,000  Level FlightAware ADS-B
Sat 04:37:42 AM 33.2070 -100.2130 278° West 427 491 40,000  Level FlightAware ADS-B
Sat 04:38:22 AM 33.2150 -100.2930 277° West 427 491 40,000  Level FlightAware ADS-B
Sat 04:39:02 AM 33.2240 -100.3720 278° West 427 491 40,000  Level FlightAware ADS-B
Sat 04:39:42 AM 33.2400 -100.4930 279° West 424 488 40,000  Level FlightAware ADS-B
Sat 04:40:27 AM 33.2500 -100.5880 277° West 424 488 40,000  Level FlightAware ADS-B
Sat 04:41:07 AM 33.2580 -100.6670 277° West 424 488 40,000  Level FlightAware ADS-B
Sat 04:41:47 AM 33.2660 -100.7460 277° West 424 488 40,000  Level FlightAware ADS-B
Sat 04:42:27 AM 33.2740 -100.8260 277° West 424 488 40,000  Level FlightAware ADS-B
Sat 04:43:17 AM 33.2840 -100.9250 277° West 424 488 40,000  Level FlightAware ADS-B
Sat 04:43:57 AM 33.2920 -101.0040 277° West 424 488 40,000  Level FlightAware ADS-B
Sat 04:44:37 AM 33.3010 -101.0830 278° West 424 488 40,000  Level FlightAware ADS-B
Sat 04:45:17 AM 33.3090 -101.1620 277° West 424 488 40,000  Level FlightAware ADS-B
Sat 04:45:57 AM 33.3170 -101.2410 277° West 424 488 40,000  Level FlightAware ADS-B
Sat 04:46:47 AM 33.3270 -101.3400 277° West 424 488 40,000  Level FlightAware ADS-B
Sat 04:47:27 AM 33.3350 -101.4200 277° West 424 488 40,000  Level FlightAware ADS-B
Sat 04:48:07 AM 33.3430 -101.4990 277° West 424 488 40,000  Level FlightAware ADS-B
Sat 04:48:47 AM 33.3510 -101.5780 277° West 424 488 40,000  Level FlightAware ADS-B
Sat 04:49:37 AM 33.3620 -101.6770 278° West 424 488 40,000  Level FlightAware ADS-B
Sat 04:53:07 AM 33.4390 -102.3760 278° West 432 497 40,000  Level FlightAware ADS-B
Sat 04:53:47 AM 33.4480 -102.4690 277° West 431 496 40,000  Level FlightAware ADS-B
Sat 04:54:27 AM 33.4550 -102.5550 276° West 431 496 40,000  Level FlightAware ADS-B
Sat 04:55:07 AM 33.4620 -102.6360 276° West 431 496 40,000  Level FlightAware ADS-B
Sat 04:55:47 AM 33.4700 -102.7160 277° West 431 496 40,000  Level FlightAware ADS-B
Sat 04:56:37 AM 33.4780 -102.8180 275° West 431 496 40,000  Level FlightAware ADS-B
Sat 04:57:17 AM 33.4850 -102.8980 276° West 431 496 40,000  Level FlightAware ADS-B
Sat 04:57:57 AM 33.4930 -102.9790 277° West 431 496 40,000  Level FlightAware ADS-B
Sat 04:58:37 AM 33.5000 -103.0600 276° West 431 496 40,000  Level FlightAware ADS-B
Sat 04:59:17 AM 33.5070 -103.1410 276° West 431 496 40,000  Level FlightAware ADS-B
Sat 05:00:07 AM 33.5160 -103.2420 276° West 431 496 40,000  Level FlightAware ADS-B
Sat 05:00:47 AM 33.5230 -103.3230 276° West 431 496 40,000  Level FlightAware ADS-B
Sat 05:01:27 AM 33.5300 -103.4040 276° West 431 496 40,000  Level FlightAware ADS-B
Sat 05:02:07 AM 33.5370 -103.4850 276° West 431 496 40,000  Level FlightAware ADS-B
Sat 05:02:47 AM 33.5440 -103.5660 276° West 431 496 40,000  Level FlightAware ADS-B
Sat 05:03:37 AM 33.5530 -103.6670 276° West 431 496 40,000  Level FlightAware ADS-B
Sat 05:04:12 AM 33.5822 -103.9411 276° West 426 490 40,000  Level Albuquerque Center
Sat 05:05:12 AM 33.5936 -104.0828 276° West 428 493 40,000  Level Albuquerque Center
Sat 05:06:12 AM 33.6056 -104.2258 276° West 432 497 40,000  Level Albuquerque Center
Sat 05:07:12 AM 33.6181 -104.3800 276° West 435 501 40,000  Level Albuquerque Center
Sat 05:08:12 AM 33.6286 -104.5236 275° West 436 502 40,000  Level Albuquerque Center
Sat 05:09:13 AM 33.6406 -104.6669 276° West 435 501 40,000  Level Albuquerque Center
Sat 05:10:13 AM 33.6511 -104.8117 275° West 437 503 40,000  Level Albuquerque Center
Sat 05:11:13 AM 33.6619 -104.9553 275° West 436 502 40,000  Level Albuquerque Center
Sat 05:12:13 AM 33.6736 -105.0989 276° West 434 499 40,000  Level Albuquerque Center
Sat 05:13:13 AM 33.6842 -105.2428 275° West 436 502 40,000  Level Albuquerque Center
Sat 05:14:13 AM 33.6958 -105.3881 276° West 437 503 40,000  Level Albuquerque Center
Sat 05:19:37 AM 33.7490 -106.1610 276° West 436 502 40,000  Level FlightAware ADS-B
Sat 05:20:22 AM 33.7550 -106.2560 274° West 436 502 40,000  Level FlightAware ADS-B
Sat 05:21:02 AM 33.7590 -106.3380 273° West 436 502 40,000  Level FlightAware ADS-B
Sat 05:21:42 AM 33.7640 -106.4210 274° West 436 502 40,000  Level FlightAware ADS-B
Sat 05:22:32 AM 33.7700 -106.5240 274° West 436 502 40,000  Level FlightAware ADS-B
Sat 05:23:12 AM 33.7750 -106.6060 274° West 436 502 40,000  Level FlightAware ADS-B
Sat 05:23:52 AM 33.7800 -106.6880 274° West 436 502 40,000  Level FlightAware ADS-B
Sat 05:24:32 AM 33.7850 -106.7700 274° West 436 502 40,000  Level FlightAware ADS-B
Sat 05:25:12 AM 33.7890 -106.8530 273° West 436 502 40,000  Level FlightAware ADS-B
Sat 05:26:02 AM 33.7950 -106.9560 274° West 436 502 40,000  Level FlightAware ADS-B
Sat 05:26:42 AM 33.8000 -107.0380 274° West 436 502 40,000  Level FlightAware ADS-B
Sat 05:27:22 AM 33.8180 -107.2950 275° West 439 505 40,000  Level FlightAware ADS-B
Sat 05:28:07 AM 33.8230 -107.3970 273° West 439 505 40,000  Level FlightAware ADS-B
Sat 05:28:47 AM 33.8300 -107.5000 275° West 441 507 40,000  Level FlightAware ADS-B
Sat 05:29:22 AM 33.8350 -107.5860 274° West 441 507 40,000  Level FlightAware ADS-B
Sat 05:30:12 AM 33.8410 -107.7110 273° West 442 509 40,000  Level FlightAware ADS-B
Sat 05:30:52 AM 33.8460 -107.8070 274° West 441 507 40,000  Level FlightAware ADS-B
Sat 05:31:32 AM 33.8510 -107.9070 273° West 439 505 40,000  Level FlightAware ADS-B
Sat 05:32:17 AM 33.8570 -108.0150 274° West 441 507 40,000  Level FlightAware ADS-B
Sat 05:32:57 AM 33.8620 -108.1080 274° West 442 509 40,000  Level FlightAware ADS-B
Sat 05:33:42 AM 33.8680 -108.2260 274° West 444 511 40,000  Level FlightAware ADS-B
Sat 05:34:22 AM 33.8720 -108.3220 273° West 443 510 40,000  Level FlightAware ADS-B
Sat 05:35:02 AM 33.8770 -108.4200 274° West 435 501 40,000  Level FlightAware ADS-B
Sat 05:35:42 AM 33.8810 -108.5070 273° West 434 499 40,000  Level FlightAware ADS-B
Sat 05:36:22 AM 33.8840 -108.5890 273° West 434 499 40,000  Level FlightAware ADS-B
Sat 05:37:12 AM 33.8890 -108.6910 273° West 434 499 40,000  Level FlightAware ADS-B
Sat 05:37:52 AM 33.8920 -108.7730 273° West 434 499 40,000  Level FlightAware ADS-B
Sat 05:38:32 AM 33.8960 -108.8560 273° West 434 499 40,000  Level FlightAware ADS-B
Sat 05:39:12 AM 33.8990 -108.9380 273° West 434 499 40,000  Level FlightAware ADS-B
Sat 05:39:57 AM 33.9070 -109.0860 274° West 430 495 40,000  Level FlightAware ADS-B
Sat 05:40:37 AM 33.9080 -109.1500 271° West 430 495 40,000  Level FlightAware ADS-B
Sat 05:41:17 AM 33.9110 -109.2310 273° West 430 495 40,000  Level FlightAware ADS-B
Sat 05:42:07 AM 33.9140 -109.3330 272° West 430 495 40,000  Level FlightAware ADS-B
Sat 05:42:42 AM 33.9220 -109.4740 274° West 429 494 40,000  Level FlightAware ADS-B
Sat 05:43:27 AM 33.9250 -109.5740 272° West 429 494 40,000  Level FlightAware ADS-B
Sat 05:44:12 AM 33.9310 -109.7060 273° West 432 497 40,000  Level FlightAware ADS-B
Sat 05:44:47 AM 33.9330 -109.7840 272° West 432 497 40,000  Level FlightAware ADS-B
Sat 05:45:42 AM 33.9390 -109.9230 273° West 433 498 40,000  Level FlightAware ADS-B
Sat 05:46:32 AM 33.9420 -110.0290 272° West 432 497 40,000  Level FlightAware ADS-B
Sat 05:47:07 AM 33.9450 -110.1200 272° West 431 496 40,000  Level FlightAware ADS-B
Sat 05:47:47 AM 33.9480 -110.2130 272° West 432 497 40,000  Level FlightAware ADS-B
Sat 05:48:32 AM 33.9520 -110.3360 272° West 432 497 40,000  Level FlightAware ADS-B
Sat 05:49:22 AM 33.9570 -110.4820 272° West 432 497 40,000  Level FlightAware ADS-B
Sat 05:50:02 AM 33.9600 -110.5800 272° West 432 497 40,000  Level FlightAware ADS-B
Sat 05:50:47 AM 33.9630 -110.6840 272° West 436 502 40,000  Level FlightAware ADS-B
Sat 05:51:27 AM 33.9660 -110.7840 272° West 440 506 40,000  Level FlightAware ADS-B
Sat 05:52:07 AM 33.9680 -110.8800 271° West 441 507 40,000  Level FlightAware ADS-B
Sat 05:52:47 AM 33.9710 -110.9810 272° West 441 507 40,000  Level FlightAware ADS-B
Sat 05:53:32 AM 33.9740 -111.0910 272° West 445 512 40,000  Level FlightAware ADS-B
Sat 05:54:17 AM 33.9770 -111.2060 272° West 447 514 40,000  Level FlightAware ADS-B
Sat 05:54:57 AM 33.9790 -111.3000 271° West 450 518 40,000  Level FlightAware ADS-B
Sat 05:55:37 AM 33.9810 -111.4030 271° West 452 520 40,000  Level FlightAware ADS-B
Sat 05:56:22 AM 33.9840 -111.5160 272° West 452 520 40,000  Level FlightAware ADS-B
Sat 05:57:02 AM 33.9860 -111.6200 271° West 455 524 40,000  Level FlightAware ADS-B
Sat 05:57:42 AM 33.9880 -111.7210 271° West 453 521 40,000  Level FlightAware ADS-B
Sat 05:58:27 AM 33.9910 -111.8320 272° West 454 522 40,000  Level FlightAware ADS-B
Sat 05:59:07 AM 33.9920 -111.9330 271° West 453 521 40,000  Level FlightAware ADS-B
Sat 05:59:52 AM 33.9940 -112.0490 271° West 452 520 40,000  Level FlightAware ADS-B
Sat 06:00:32 AM 33.9960 -112.1490 271° West 452 520 40,000  Level FlightAware ADS-B
Sat 06:01:17 AM 33.9980 -112.2600 271° West 451 519 40,000  Level FlightAware ADS-B
Sat 06:01:57 AM 34.0000 -112.3590 271° West 447 514 40,000  Level FlightAware ADS-B
Sat 06:02:37 AM 34.0010 -112.4580 271° West 443 510 40,000  Level FlightAware ADS-B
Sat 06:03:22 AM 34.0030 -112.5710 271° West 439 505 40,000  Level FlightAware ADS-B
Sat 06:04:02 AM 34.0040 -112.6680 271° West 434 499 40,000  Level FlightAware ADS-B
Sat 06:04:47 AM 34.0050 -112.7750 271° West 432 497 40,000  Level FlightAware ADS-B
Sat 06:05:27 AM 34.0060 -112.8700 271° West 429 494 40,000  Level FlightAware ADS-B
Sat 06:06:07 AM 34.0070 -112.9660 271° West 429 494 40,000  Level FlightAware ADS-B
Sat 06:06:52 AM 34.0080 -113.0760 271° West 430 495 40,000  Level FlightAware ADS-B
Sat 06:07:32 AM 34.0090 -113.1720 271° West 432 497 40,000  Level FlightAware ADS-B
Sat 06:08:12 AM 34.0100 -113.2680 271° West 433 498 40,000  Level FlightAware ADS-B
Sat 06:08:57 AM 34.0110 -113.3720 271° West 433 498 40,000  Level FlightAware ADS-B
Sat 06:09:37 AM 34.0110 -113.4700 270° West 433 498 40,000  Level FlightAware ADS-B
Sat 06:10:22 AM 34.0120 -113.5810 271° West 433 498 40,000  Level FlightAware ADS-B
Sat 06:11:02 AM 34.0130 -113.6780 271° West 434 499 40,000  Level FlightAware ADS-B
Sat 06:11:47 AM 34.0130 -113.7820 270° West 435 501 40,000  Level FlightAware ADS-B
Sat 06:12:27 AM 34.0130 -113.8810 270° West 435 501 40,000  Level FlightAware ADS-B
Sat 06:13:07 AM 34.0130 -113.9750 270° West 435 501 40,000  Level FlightAware ADS-B
Sat 06:13:52 AM 34.0120 -114.0890 269° West 436 502 40,000  Level FlightAware ADS-B
Sat 06:14:32 AM 34.0110 -114.1860 269° West 436 502 40,000  Level FlightAware ADS-B
Sat 06:15:12 AM 34.0100 -114.2810 269° West 435 501 40,000  Level FlightAware ADS-B
Sat 06:15:57 AM 34.0100 -114.3900 270° West 435 501 40,000  Level FlightAware ADS-B
Sat 06:16:32 AM 34.0090 -114.4770 269° West 433 498 40,000  Level FlightAware ADS-B
Sat 06:17:17 AM 34.0080 -114.5820 269° West 431 496 40,000  Level FlightAware ADS-B
Sat 06:17:57 AM 34.0070 -114.6780 269° West 428 493 40,000  Level FlightAware ADS-B
Sat 06:18:42 AM 34.0050 -114.7730 269° West 428 493 40,000  Level FlightAware ADS-B
Sat 06:19:22 AM 34.0040 -114.8550 269° West 428 493 40,000  Level FlightAware ADS-B
Sat 06:20:02 AM 34.0030 -114.9360 269° West 428 493 40,000  Level FlightAware ADS-B
Sat 06:20:42 AM 34.0020 -115.0170 269° West 428 493 40,000  Level FlightAware ADS-B
Sat 06:21:32 AM 34.0000 -115.1180 269° West 428 493 40,000  Level FlightAware ADS-B
Sat 06:22:12 AM 33.9980 -115.2760 269° West 420 483 40,000  Level FlightAware ADS-B
Sat 06:22:52 AM 33.9970 -115.3700 269° West 420 483 40,000  Level FlightAware ADS-B
Sat 06:23:37 AM 33.9950 -115.4750 269° West 420 483 40,000  Level FlightAware ADS-B
Sat 06:24:22 AM 33.9930 -115.5800 269° West 419 482 40,000  Level FlightAware ADS-B
Sat 06:25:02 AM 33.9910 -115.6710 269° West 419 482 40,000  Level FlightAware ADS-B
Sat 06:25:47 AM 33.9890 -115.7780 269° West 420 483 40,000  Level FlightAware ADS-B
Sat 06:26:27 AM 33.9870 -115.8720 269° West 421 484 40,000 -375 Level FlightAware ADS-B
Sat 06:27:07 AM 33.9850 -115.9680 269° West 423 487 39,500 -1,906 Descending FlightAware ADS-B
Sat 06:27:52 AM 33.9830 -116.0710 269° West 425 489 37,300 -2,965 Descending FlightAware ADS-B
Sat 06:28:32 AM 33.9810 -116.1640 269° West 430 495 35,300 -2,824 Descending FlightAware ADS-B
Sat 06:29:17 AM 33.9780 -116.2740 268° West 424 488 33,300 -2,612 Descending FlightAware ADS-B
Sat 06:29:57 AM 33.9750 -116.3670 268° West 418 481 31,600 -2,612 Descending FlightAware ADS-B
Sat 06:30:42 AM 33.9730 -116.4730 269° West 409 471 29,600 -2,612 Descending FlightAware ADS-B
Sat 06:31:22 AM 33.9700 -116.5630 268° West 400 460 27,900 -2,550 Descending FlightAware ADS-B
Sat 06:32:02 AM 33.9680 -116.6510 268° West 388 447 26,200 -2,541 Descending FlightAware ADS-B
Sat 06:32:47 AM 33.9650 -116.7460 268° West 376 433 24,300 -2,471 Descending FlightAware ADS-B
Sat 06:33:27 AM 33.9630 -116.8290 268° West 368 423 22,700 -2,400 Descending FlightAware ADS-B
Sat 06:34:12 AM 33.9600 -116.9160 268° West 357 411 20,900 -2,400 Descending FlightAware ADS-B
Sat 06:34:47 AM 33.9580 -116.9880 268° West 349 402 19,500 -2,400 Descending FlightAware ADS-B
Sat 06:35:32 AM 33.9560 -117.0710 268° West 345 397 17,700 -2,000 Descending FlightAware ADS-B
Sat 06:36:17 AM 33.9500 -117.1610 265° West 337 388 16,500 -1,271 Descending FlightAware ADS-B
Sat 06:36:57 AM 33.9440 -117.2310 264° West 336 387 15,900 -825 Descending FlightAware ADS-B
Sat 06:37:37 AM 33.9380 -117.3100 265° West 332 382 15,400 -706 Descending FlightAware ADS-B
Sat 06:38:22 AM 33.9300 -117.3900 263° West 328 377 14,900 -706 Descending FlightAware ADS-B
Sat 06:39:02 AM 33.9240 -117.4630 264° West 326 375 14,400 -776 Descending FlightAware ADS-B
Sat 06:39:47 AM 33.9210 -117.5460 268° West 327 376 13,800 -847 Descending FlightAware ADS-B
Sat 06:40:27 AM 33.9310 -117.6180 280° West 325 374 13,200 -635 Descending FlightAware ADS-B
Sat 06:41:12 AM 33.9420 -117.6960 280° West 321 369 12,900 -424 Descending FlightAware ADS-B
Sat 06:41:52 AM 33.9480 -117.7670 276° West 319 367 12,600 -600 Descending FlightAware ADS-B
Sat 06:42:32 AM 33.9540 -117.8380 276° West 321 369 12,100 -776 Descending FlightAware ADS-B
Sat 06:43:17 AM 33.9620 -117.9190 277° West 319 367 11,500 -706 Descending FlightAware ADS-B
Sat 06:43:57 AM 33.9690 -117.9900 277° West 320 368 11,100 -675 Descending FlightAware ADS-B
Sat 06:44:37 AM 33.9750 -118.0600 276° West 313 360 10,600 -706 Descending FlightAware ADS-B
Sat 06:45:22 AM 33.9820 -118.1310 277° West 284 327 10,100 -640 Descending FlightAware ADS-B
Sat 06:45:52 AM 33.9860 -118.1790 276° West 266 306 9,800 -655 Descending FlightAware ADS-B
Sat 06:46:17 AM 33.9890 -118.2170 275° West 262 302 9,500 -600 Descending FlightAware ADS-B
Sat 06:46:32 AM 33.9910 -118.2370 277° West 267 307 9,400 -450 Descending FlightAware ADS-B
Sat 06:46:57 AM 33.9940 -118.2760 275° West 267 307 9,200 -600 Descending FlightAware ADS-B
Sat 06:47:12 AM 33.9960 -118.2950 277° West 265 305 9,000 -667 Descending FlightAware ADS-B
Sat 06:47:42 AM 34.0000 -118.3400 276° West 265 305 8,700 -800 Descending FlightAware ADS-B
Sat 06:48:12 AM 34.0040 -118.3840 276° West 263 303 8,200 -873 Descending FlightAware ADS-B
Sat 06:48:37 AM 34.0070 -118.4220 275° West 252 290 7,900 -360 Descending FlightAware ADS-B
Sat 06:49:02 AM 34.0100 -118.4540 276° West 238 274 7,900  Level FlightAware ADS-B
Sat 06:49:17 AM 34.0110 -118.4750 273° West 232 267 7,900 -1,200 Level FlightAware ADS-B
Sat 06:49:47 AM 34.0110 -118.5120 270° West 220 253 7,000 -1,733 Descending FlightAware ADS-B
Sat 06:50:02 AM 34.0110 -118.5290 270° West 214 246 6,600 -1,650 Descending FlightAware ADS-B
Sat 06:50:27 AM 34.0130 -118.5600 274° West 210 242 5,900 -1,964 Descending FlightAware ADS-B
Sat 06:50:57 AM 34.0140 -118.5960 272° West 216 249 4,800 -1,600 Descending FlightAware ADS-B
Sat 06:51:27 AM 34.0150 -118.6310 272° West 203 234 4,300 -982 Descending FlightAware ADS-B
Sat 06:51:52 AM 34.0160 -118.6570 273° West 199 229 3,900 -327 Descending FlightAware ADS-B
Sat 06:52:22 AM 34.0180 -118.6900 274° West 202 232 4,000 86 Climbing FlightAware ADS-B
Sat 06:53:02 AM 34.0110 -118.7310 258° West 183 211 4,000  Level FlightAware ADS-B
Sat 06:53:17 AM 33.9980 -118.7350 194° South 183 211 4,000 2,700 Level FlightAware ADS-B
Sat 06:53:42 AM 34.0130 -118.5630 84° East 211 243 5,800 982 Climbing FlightAware ADS-B
Sat 06:54:12 AM 34.0140 -118.5920 272° West 216 249 4,900 -1,371 Descending FlightAware ADS-B
Sat 06:54:52 AM 34.0150 -118.6350 272° West 201 231 4,200 -771 Descending FlightAware ADS-B
Sat 06:55:22 AM 34.0160 -118.6520 274° West 201 231 4,000 -200 Descending FlightAware ADS-B
Sat 06:55:52 AM 34.0180 -118.7040 273° West 202 232 4,000  Level FlightAware ADS-B
Sat 06:56:17 AM 34.0140 -118.7270 258° West 184 212 4,000  Level FlightAware ADS-B
Sat 06:56:27 AM 34.0130 -118.7290 239° Southwest 183 211 4,000 -240 Level FlightAware ADS-B
Sat 06:56:42 AM 33.9930 -118.7350 194° South 183 211 3,900 -1,000 Descending FlightAware ADS-B
Sat 06:57:27 AM 33.9480 -118.7280 173° South 167 192 3,000 -1,600 Descending FlightAware ADS-B
Sat 06:57:57 AM 33.9220 -118.5500 100° East 158 182 1,900 -1,333 Descending FlightAware ADS-B
Sat 06:58:12 AM 33.9240 -118.5360 80° East 150 173 2,000 -533 Climbing FlightAware ADS-B
Sat 06:58:42 AM 33.9260 -118.5110 84° East 144 166 1,500 -873 Descending FlightAware ADS-B
Sat 06:59:07 AM 33.9280 -118.4900 83° East 143 165 1,200 -600 Descending FlightAware ADS-B
Sat 06:59:22 AM 33.9300 -118.4800 76° East 142 163 1,100 960 Descending FlightAware ADS-B
Sat 06:59:57 AM 33.9180 -118.5920 263° West 159 183 2,000 900 Climbing FlightAware ADS-B
Sat 07:00:22 AM 33.9200 -118.5720 83° East 159 183 2,000  Level FlightAware ADS-B
Sat 07:00:37 AM 33.9210 -118.5680 73° East 161 185 2,000 -240 Level FlightAware ADS-B
Sat 07:01:12 AM 33.9250 -118.5290 83° East 149 171 1,800 -369 Descending FlightAware ADS-B
Sat 07:01:42 AM 33.9260 -118.5150 85° East 144 166 1,600 -327 Descending FlightAware ADS-B
Sat 07:02:07 AM 33.9270 -118.5050 83° East 143 165 1,500 -327 Descending FlightAware ADS-B
Sat 07:02:37 AM 33.9280 -118.4960 82° East 143 165 1,300 -667 Descending FlightAware ADS-B
Sat 07:02:52 AM 33.9300 -118.4770 83° East 141 162 1,000 -600 Descending FlightAware ADS-B
Sat 07:03:17 AM 33.9310 -118.4640 85° East 139 160 900 -300 Descending FlightAware ADS-B
Sat 07:03:52 AM 33.9340 -118.4370 82° East 141 162 700 -343 Descending FlightAware ADS-B

Login

Don't have an account? Register now (free) for customized features, flight alerts, and more!